Time;durP1;ratioP1;P1;durP2;ratioP2;P2;SDS_P1;SDS_P2;PMS_P1;PMS_P2;Temp;Humidity;BMP_temperature;BMP_pressure;BME280_temperature;BME280_humidity;BME280_pressure;Samples;Min_cycle;Max_cycle;Signal;HPM_P1;HPM_P2
2021/12/04 00:00:25;;;;;;;3.40;3.20;;;7.40;99.90;;;;;;4898849;29;20465;-68
2021/12/04 00:02:52;;;;;;;3.90;3.70;;;7.50;99.90;;;;;;4899501;29;20282;-68
2021/12/04 00:05:20;;;;;;;3.40;3.10;;;7.60;99.90;;;;;;4898303;29;20427;-68
2021/12/04 00:07:46;;;;;;;3.33;3.13;;;7.70;99.90;;;;;;4879546;29;20444;-68
2021/12/04 00:10:21;;;;;;;3.30;3.10;;;7.60;99.90;;;;;;4880345;29;20430;-69
2021/12/04 00:12:48;;;;;;;3.70;3.50;;;7.60;99.90;;;;;;4881063;29;20419;-68
2021/12/04 00:15:14;;;;;;;3.37;3.20;;;7.70;99.90;;;;;;4879721;29;20798;-69
2021/12/04 00:17:40;;;;;;;3.90;3.70;;;7.70;99.90;;;;;;4891212;29;20490;-68
2021/12/04 00:20:08;;;;;;;3.60;3.40;;;7.80;99.90;;;;;;4899436;29;20431;-67
2021/12/04 00:22:34;;;;;;;4.00;3.70;;;7.80;99.90;;;;;;4898630;29;20959;-68
2021/12/04 00:24:59;;;;;;;4.00;3.70;;;7.70;99.90;;;;;;4899373;29;20417;-68
2021/12/04 00:27:25;;;;;;;3.90;3.70;;;7.60;99.90;;;;;;4898575;29;20435;-68
2021/12/04 00:29:51;;;;;;;3.90;3.60;;;7.60;99.90;;;;;;4899339;29;20646;-68
2021/12/04 00:32:27;;;;;;;4.40;4.17;;;7.60;99.90;;;;;;4898274;29;20190;-68
2021/12/04 00:35:38;;;;;;;4.03;3.83;;;7.70;99.90;;;;;;4899271;29;20189;-68
2021/12/04 00:51:11;;;;;;;3.53;3.40;;;7.70;99.90;;;;;;4898853;29;20399;-68
2021/12/04 00:53:37;;;;;;;3.67;3.47;;;7.70;99.90;;;;;;4898257;29;20445;-68
2021/12/04 00:56:03;;;;;;;3.60;3.40;;;7.60;99.90;;;;;;4881513;29;20187;-68
2021/12/04 00:58:29;;;;;;;3.80;3.60;;;7.50;99.90;;;;;;4897727;29;20276;-68
2021/12/04 01:00:55;;;;;;;3.70;3.50;;;7.50;99.90;;;;;;4898759;29;20828;-68
2021/12/04 01:03:20;;;;;;;3.70;3.50;;;7.60;99.90;;;;;;4897363;29;20233;-68
2021/12/04 01:05:46;;;;;;;3.77;3.57;;;7.70;99.90;;;;;;4881978;29;20321;-68
2021/12/04 01:08:12;;;;;;;3.53;3.33;;;7.80;99.90;;;;;;4898454;29;20200;-69
2021/12/04 01:10:38;;;;;;;3.73;3.53;;;7.80;99.90;;;;;;4897984;29;20414;-68
2021/12/04 01:13:10;;;;;;;4.20;3.90;;;7.90;99.90;;;;;;4898042;29;20198;-68
2021/12/04 01:15:37;;;;;;;3.93;3.63;;;7.90;99.90;;;;;;4880914;29;20194;-68
2021/12/04 01:18:03;;;;;;;3.53;3.33;;;8.00;99.90;;;;;;4897652;29;20494;-68
2021/12/04 01:20:28;;;;;;;3.93;3.73;;;8.00;99.90;;;;;;4897604;29;20523;-68
2021/12/04 01:22:54;;;;;;;4.20;3.90;;;8.10;99.90;;;;;;4898193;29;20675;-68
2021/12/04 01:25:20;;;;;;;3.90;3.70;;;8.10;99.90;;;;;;4897519;29;20202;-68
2021/12/04 01:27:46;;;;;;;3.60;3.40;;;8.10;99.90;;;;;;4896534;29;20258;-68
2021/12/04 01:30:12;;;;;;;3.67;3.47;;;8.20;99.90;;;;;;4898207;29;20175;-68
2021/12/04 01:32:38;;;;;;;4.30;3.90;;;8.20;99.90;;;;;;4897094;29;20186;-68
2021/12/04 01:35:04;;;;;;;4.50;4.20;;;8.20;99.90;;;;;;4881256;29;20439;-68
2021/12/04 01:37:30;;;;;;;4.67;4.37;;;8.20;99.90;;;;;;4911166;29;20431;-68
2021/12/04 01:39:56;;;;;;;4.80;4.50;;;8.30;99.90;;;;;;4897740;29;20434;-68
2021/12/04 01:42:22;;;;;;;4.50;4.20;;;8.20;99.80;;;;;;4896820;29;20246;-68
2021/12/04 01:44:48;;;;;;;4.67;4.37;;;8.30;99.90;;;;;;4881127;29;20274;-68
2021/12/04 01:47:17;;;;;;;4.33;4.03;;;8.30;99.70;;;;;;4898145;29;20186;-68
2021/12/04 01:49:43;;;;;;;3.67;3.40;;;8.20;99.80;;;;;;4897403;29;20899;-68
2021/12/04 01:52:09;;;;;;;4.00;3.70;;;8.20;99.90;;;;;;4897595;29;20810;-68
2021/12/04 01:54:36;;;;;;;4.30;4.00;;;8.10;99.80;;;;;;4897021;29;20432;-68
2021/12/04 01:57:03;;;;;;;5.10;4.70;;;7.80;99.90;;;;;;4897410;29;20517;-68
2021/12/04 01:59:29;;;;;;;4.10;3.80;;;7.60;99.90;;;;;;4896892;29;20430;-68
2021/12/04 02:01:57;;;;;;;3.93;3.73;;;7.60;99.90;;;;;;4897493;29;20820;-68
2021/12/04 02:04:23;;;;;;;4.40;4.10;;;7.60;99.90;;;;;;4896853;29;20442;-68
2021/12/04 02:06:48;;;;;;;4.70;4.20;;;7.60;99.90;;;;;;4911730;29;20442;-68
2021/12/04 02:09:14;;;;;;;4.50;4.30;;;7.80;99.90;;;;;;4897511;29;20427;-68
2021/12/04 02:11:40;;;;;;;4.50;4.30;;;7.80;99.90;;;;;;4896739;29;20187;-68
2021/12/04 02:14:06;;;;;;;4.20;3.90;;;7.90;99.90;;;;;;4880812;29;20195;-66
2021/12/04 02:16:33;;;;;;;4.70;4.30;;;7.90;99.90;;;;;;4896484;29;20270;-68
2021/12/04 02:18:59;;;;;;;5.13;4.73;;;7.90;99.90;;;;;;4897595;29;20416;-68
2021/12/04 02:21:26;;;;;;;4.60;4.30;;;7.70;99.90;;;;;;4896157;29;20449;-68
2021/12/04 02:23:52;;;;;;;4.30;4.10;;;7.70;99.90;;;;;;4897296;29;20450;-68
2021/12/04 02:26:18;;;;;;;5.10;4.60;;;7.70;99.90;;;;;;4897024;29;20896;-68
2021/12/04 02:28:45;;;;;;;4.97;4.57;;;7.50;99.90;;;;;;4896465;29;20434;-68
2021/12/04 02:31:11;;;;;;;4.90;4.60;;;7.20;99.90;;;;;;4897184;29;20749;-67
2021/12/04 02:33:37;;;;;;;4.73;4.33;;;7.40;99.90;;;;;;4879798;29;21130;-68
2021/12/04 02:36:06;;;;;;;4.90;4.50;;;7.50;99.90;;;;;;4896801;29;20542;-68
2021/12/04 02:38:32;;;;;;;4.73;4.43;;;7.50;99.90;;;;;;4896346;29;20442;-68
2021/12/04 02:41:02;;;;;;;5.10;4.80;;;7.60;99.90;;;;;;4896795;29;20487;-68
2021/12/04 02:43:32;;;;;;;4.93;4.63;;;7.60;99.90;;;;;;4896135;29;20964;-68
2021/12/04 02:45:57;;;;;;;4.90;4.60;;;7.60;99.90;;;;;;4897397;29;20535;-68
2021/12/04 02:48:23;;;;;;;4.87;4.57;;;7.60;99.90;;;;;;4895879;29;20931;-68
2021/12/04 02:50:49;;;;;;;4.93;4.43;;;7.60;99.90;;;;;;4896952;29;20657;-68
2021/12/04 02:53:15;;;;;;;5.60;5.20;;;7.70;99.90;;;;;;4897048;29;20190;-68
2021/12/04 02:55:42;;;;;;;5.60;5.20;;;7.80;99.90;;;;;;4896004;29;20807;-68
2021/12/04 02:58:08;;;;;;;5.50;5.10;;;7.90;99.90;;;;;;4897027;29;20769;-68
2021/12/04 03:00:34;;;;;;;5.23;4.83;;;7.80;99.90;;;;;;4896251;29;20431;-68
2021/12/04 03:03:00;;;;;;;5.30;5.00;;;7.80;99.90;;;;;;4896084;29;20226;-68
2021/12/04 03:05:27;;;;;;;5.40;5.00;;;7.80;99.90;;;;;;4879345;29;20444;-68
2021/12/04 03:07:55;;;;;;;5.37;4.97;;;7.90;99.90;;;;;;4896791;29;20514;-68
2021/12/04 03:10:22;;;;;;;5.07;4.77;;;7.90;99.90;;;;;;4896848;29;20748;-69
2021/12/04 03:12:48;;;;;;;5.63;5.23;;;7.80;99.90;;;;;;4896196;29;20434;-68
2021/12/04 03:15:15;;;;;;;5.43;5.03;;;7.50;99.90;;;;;;4896870;29;20421;-68
2021/12/04 03:17:41;;;;;;;5.10;4.70;;;7.30;99.90;;;;;;4896120;29;20418;-68
2021/12/04 03:20:10;;;;;;;5.27;4.97;;;7.40;99.90;;;;;;4896807;29;20437;-68
2021/12/04 03:22:37;;;;;;;5.20;4.80;;;7.20;99.90;;;;;;4895703;29;20505;-68
2021/12/04 03:25:03;;;;;;;4.23;4.03;;;7.20;99.90;;;;;;4896878;29;20422;-68
2021/12/04 03:27:31;;;;;;;5.17;4.77;;;7.10;99.90;;;;;;4879220;29;20430;-68
2021/12/04 03:29:59;;;;;;;5.00;4.60;;;6.90;99.90;;;;;;4911246;29;20425;-68
2021/12/04 03:43:14;;;;;;;4.80;4.50;;;7.40;99.90;;;;;;4899942;29;20446;-68
2021/12/04 03:45:43;;;;;;;5.23;4.83;;;7.40;99.90;;;;;;4899307;29;20418;-68
2021/12/04 03:48:13;;;;;;;5.10;4.80;;;7.40;99.90;;;;;;4900024;29;20193;-68
2021/12/04 03:50:39;;;;;;;4.50;4.20;;;7.50;99.90;;;;;;4899059;29;20455;-68
2021/12/04 03:53:05;;;;;;;4.27;4.00;;;7.40;99.90;;;;;;4899852;29;20438;-68
2021/12/04 03:55:31;;;;;;;4.50;4.13;;;7.50;99.90;;;;;;4898924;29;20240;-68
2021/12/04 03:57:57;;;;;;;4.70;4.40;;;7.60;99.90;;;;;;4899640;29;20417;-68
2021/12/04 04:00:28;;;;;;;5.97;4.40;;;7.40;99.90;;;;;;4899475;29;20426;-69
2021/12/04 04:02:55;;;;;;;4.70;4.40;;;7.50;99.90;;;;;;4899197;29;20539;-68
2021/12/04 04:05:20;;;;;;;4.30;4.10;;;7.60;99.90;;;;;;4899582;29;20454;-68
2021/12/04 04:07:46;;;;;;;4.40;4.10;;;7.70;99.90;;;;;;4898970;29;20422;-67
2021/12/04 04:10:13;;;;;;;4.67;4.27;;;7.70;99.90;;;;;;4899289;29;20224;-66
2021/12/04 04:12:38;;;;;;;4.50;4.20;;;7.60;99.90;;;;;;4898674;29;20446;-66
2021/12/04 04:15:04;;;;;;;4.33;4.03;;;7.70;99.90;;;;;;4899503;29;20483;-66
2021/12/04 04:17:32;;;;;;;4.90;4.50;;;7.80;99.90;;;;;;4898278;29;20224;-67
2021/12/04 04:19:58;;;;;;;4.63;4.23;;;7.80;99.90;;;;;;4899513;29;20438;-67
2021/12/04 04:22:24;;;;;;;4.60;4.30;;;7.80;99.90;;;;;;4899214;29;20524;-68
2021/12/04 04:24:49;;;;;;;4.23;3.83;;;7.90;99.90;;;;;;4898557;29;20533;-67
2021/12/04 04:27:15;;;;;;;4.70;4.30;;;7.80;99.90;;;;;;4899153;29;20578;-66
2021/12/04 04:29:41;;;;;;;4.60;4.30;;;7.70;99.90;;;;;;4898305;29;20627;-66
2021/12/04 04:32:07;;;;;;;3.77;3.57;;;7.80;99.90;;;;;;4899269;29;20190;-67
2021/12/04 04:34:35;;;;;;;4.83;4.60;;;7.80;99.90;;;;;;4897758;29;20326;-67
2021/12/04 05:15:16;;;;;;;3.70;3.50;;;8.30;99.90;;;;;;4898467;29;20422;-67
2021/12/04 05:20:34;;;;;;;3.87;3.67;;;7.90;99.90;;;;;;4868554;29;20827;-68
2021/12/04 05:23:00;;;;;;;4.03;3.70;;;8.00;99.90;;;;;;4898038;29;20466;-66
2021/12/04 05:25:26;;;;;;;3.60;3.43;;;8.10;99.90;;;;;;4898345;29;20490;-66
2021/12/04 05:27:52;;;;;;;4.00;3.80;;;8.20;99.90;;;;;;4897062;29;20442;-66
2021/12/04 05:30:18;;;;;;;4.90;4.50;;;8.10;99.90;;;;;;4897717;29;20438;-67
2021/12/04 05:32:44;;;;;;;4.70;4.37;;;8.20;99.90;;;;;;4897129;29;20545;-66
2021/12/04 05:35:09;;;;;;;4.60;4.20;;;7.90;99.90;;;;;;4897534;29;20189;-66
2021/12/04 05:37:35;;;;;;;3.83;3.57;;;7.50;99.90;;;;;;4897307;29;20185;-67
2021/12/04 05:40:01;;;;;;;4.77;4.30;;;7.70;99.90;;;;;;4881418;29;20196;-66
2021/12/04 05:42:27;;;;;;;4.80;4.50;;;7.80;99.90;;;;;;4897717;29;20334;-66
2021/12/04 05:44:53;;;;;;;5.20;4.80;;;7.90;99.90;;;;;;4897406;29;20540;-66
2021/12/04 05:47:27;;;;;;;4.93;4.60;;;8.00;99.90;;;;;;4897906;29;20696;-66
2021/12/04 05:50:03;;;;;;;4.43;4.13;;;8.00;99.90;;;;;;4896974;29;20441;-66
2021/12/04 05:52:39;;;;;;;5.60;5.20;;;8.10;99.90;;;;;;4897841;29;20411;-67
2021/12/04 05:55:12;;;;;;;4.87;4.50;;;8.10;99.90;;;;;;4895429;29;20430;-67
2021/12/04 05:57:38;;;;;;;4.40;4.10;;;8.10;99.90;;;;;;4895866;29;20439;-66
2021/12/04 06:00:11;;;;;;;4.93;4.60;;;7.70;99.90;;;;;;4896005;29;20586;-67
2021/12/04 06:02:36;;;;;;;4.70;4.30;;;7.60;99.90;;;;;;4895846;29;20497;-67
2021/12/04 06:05:03;;;;;;;4.20;3.90;;;7.70;99.90;;;;;;4896245;29;20420;-67
2021/12/04 06:07:28;;;;;;;4.57;4.17;;;7.80;99.90;;;;;;4895422;29;20194;-68
2021/12/04 06:09:54;;;;;;;4.63;4.33;;;7.50;99.90;;;;;;4896708;29;20437;-67
2021/12/04 06:12:20;;;;;;;4.70;4.40;;;7.50;99.90;;;;;;4896908;29;20487;-67
2021/12/04 06:14:48;;;;;;;4.83;4.53;;;7.60;99.90;;;;;;4896956;29;20419;-67
2021/12/04 06:17:14;;;;;;;4.63;4.33;;;7.70;99.90;;;;;;4897298;29;20221;-67
2021/12/04 06:22:41;;;;;;;4.50;4.20;;;7.80;99.90;;;;;;4897163;29;20467;-67
2021/12/04 06:25:08;;;;;;;5.60;5.10;;;7.70;99.90;;;;;;4897307;29;20742;-66
2021/12/04 06:27:34;;;;;;;4.87;4.47;;;7.80;99.90;;;;;;4896560;29;20422;-67
2021/12/04 06:30:01;;;;;;;5.03;4.63;;;8.00;99.90;;;;;;4911611;29;20406;-67
2021/12/04 06:32:27;;;;;;;4.97;4.57;;;7.80;99.90;;;;;;4897305;29;20427;-66
2021/12/04 06:34:52;;;;;;;5.73;5.27;;;7.70;99.90;;;;;;4879165;29;20537;-67
2021/12/04 06:37:18;;;;;;;5.27;4.87;;;7.80;99.90;;;;;;4897174;29;20207;-67
2021/12/04 06:39:44;;;;;;;5.20;4.90;;;7.50;99.90;;;;;;4896093;29;20239;-67
2021/12/04 06:42:10;;;;;;;5.77;5.33;;;7.50;99.90;;;;;;4896991;29;20421;-67
2021/12/04 06:44:36;;;;;;;6.30;5.80;;;7.70;99.90;;;;;;4896263;29;20261;-67
2021/12/04 06:47:03;;;;;;;5.10;4.80;;;7.80;99.90;;;;;;4880136;29;20449;-67
2021/12/04 06:49:33;;;;;;;5.73;5.33;;;7.80;99.90;;;;;;4896391;29;20445;-66
2021/12/04 06:52:03;;;;;;;5.10;4.77;;;7.80;99.90;;;;;;4896976;29;20453;-67
2021/12/04 06:54:34;;;;;;;6.10;5.60;;;7.50;99.90;;;;;;4897007;29;20494;-66
2021/12/04 06:57:00;;;;;;;6.30;5.60;;;7.40;99.90;;;;;;4896825;29;20911;-67
2021/12/04 06:59:29;;;;;;;6.37;5.87;;;7.60;99.90;;;;;;4880069;29;20454;-67
2021/12/04 07:01:55;;;;;;;6.07;5.57;;;7.60;99.90;;;;;;4895931;29;20248;-67
2021/12/04 07:04:21;;;;;;;5.80;5.37;;;7.80;99.90;;;;;;4897024;29;20511;-66
2021/12/04 07:06:49;;;;;;;6.20;5.70;;;7.80;99.90;;;;;;4896191;29;20781;-67
2021/12/04 07:09:15;;;;;;;5.90;5.43;;;7.80;99.90;;;;;;4895776;29;20449;-66
2021/12/04 07:11:40;;;;;;;6.07;5.63;;;7.70;99.90;;;;;;4896170;29;20422;-67
2021/12/04 07:14:06;;;;;;;6.37;5.87;;;7.40;99.90;;;;;;4896808;29;20426;-66
2021/12/04 07:16:32;;;;;;;6.33;5.83;;;7.30;99.90;;;;;;4898606;29;20217;-67
2021/12/04 07:18:58;;;;;;;6.13;5.53;;;7.40;99.90;;;;;;4900045;29;20186;-67
2021/12/04 07:21:24;;;;;;;6.23;5.77;;;7.60;99.90;;;;;;4900072;29;20442;-67
2021/12/04 07:23:50;;;;;;;6.00;5.60;;;7.70;99.90;;;;;;4899201;29;20467;-67
2021/12/04 07:26:18;;;;;;;6.20;5.70;;;7.60;99.90;;;;;;4900434;29;20919;-67
2021/12/04 07:28:43;;;;;;;6.33;5.83;;;7.70;99.90;;;;;;4899609;29;20902;-67
2021/12/04 07:31:09;;;;;;;6.60;6.13;;;7.70;99.90;;;;;;4899602;29;20427;-67
2021/12/04 07:33:37;;;;;;;5.63;5.23;;;7.80;99.90;;;;;;4899283;29;20209;-69
2021/12/04 07:36:03;;;;;;;6.47;5.87;;;7.80;99.90;;;;;;4900058;29;20795;-67
2021/12/04 07:38:29;;;;;;;6.03;5.63;;;7.70;99.90;;;;;;4900223;29;20425;-67
2021/12/04 07:40:56;;;;;;;6.53;6.03;;;7.50;99.90;;;;;;4899430;29;20610;-67
2021/12/04 07:43:22;;;;;;;6.63;6.03;;;7.60;99.90;;;;;;4883286;29;20214;-66
2021/12/04 07:45:48;;;;;;;6.20;5.70;;;7.40;99.90;;;;;;4899025;29;20432;-67
2021/12/04 07:48:13;;;;;;;6.07;5.47;;;7.40;99.90;;;;;;4899711;29;20179;-67
2021/12/04 07:50:39;;;;;;;6.23;5.73;;;7.40;99.90;;;;;;4899275;29;20429;-67
2021/12/04 07:53:05;;;;;;;5.80;5.23;;;7.40;99.90;;;;;;4899180;29;20184;-67
2021/12/04 07:55:33;;;;;;;6.97;6.20;;;7.30;99.90;;;;;;4900318;29;20516;-67
2021/12/04 07:57:59;;;;;;;6.10;5.60;;;7.40;99.90;;;;;;4899611;29;20199;-67
2021/12/04 08:00:25;;;;;;;6.67;6.10;;;7.60;99.90;;;;;;4900256;29;20564;-67
2021/12/04 08:02:51;;;;;;;6.10;5.50;;;7.70;99.90;;;;;;4899224;29;20564;-66
2021/12/04 08:05:18;;;;;;;6.20;5.70;;;7.70;99.90;;;;;;4899878;29;20191;-67
2021/12/04 08:07:44;;;;;;;5.93;5.43;;;7.70;99.90;;;;;;4899106;29;20419;-67
2021/12/04 08:10:15;;;;;;;7.07;6.47;;;7.80;99.90;;;;;;4898584;29;20438;-67
2021/12/04 08:12:41;;;;;;;6.30;5.80;;;7.80;99.90;;;;;;4898141;29;20427;-67
2021/12/04 08:15:09;;;;;;;6.37;5.87;;;7.90;99.90;;;;;;4898509;29;20426;-67
2021/12/04 08:17:35;;;;;;;6.50;5.90;;;7.80;99.90;;;;;;4898575;29;20183;-67
2021/12/04 08:20:04;;;;;;;5.93;5.43;;;7.80;99.90;;;;;;4898198;29;20884;-66
2021/12/04 08:22:29;;;;;;;6.40;5.70;;;7.60;99.90;;;;;;4898092;29;20429;-67
2021/12/04 08:24:55;;;;;;;6.17;5.67;;;7.50;99.90;;;;;;4897602;29;21045;-67
2021/12/04 08:27:21;;;;;;;6.33;5.83;;;7.20;99.90;;;;;;4899604;29;20524;-67
2021/12/04 08:29:47;;;;;;;6.03;5.53;;;7.40;99.90;;;;;;4899112;29;20419;-66
2021/12/04 08:32:13;;;;;;;6.53;6.00;;;7.50;99.90;;;;;;4899312;29;20418;-67
2021/12/04 08:34:39;;;;;;;7.93;7.10;;;7.50;99.90;;;;;;4899077;29;20638;-67
2021/12/04 08:37:05;;;;;;;6.90;6.30;;;7.60;99.90;;;;;;4899437;29;20179;-67
2021/12/04 08:39:31;;;;;;;6.97;6.37;;;7.70;99.90;;;;;;4899341;29;20195;-67
2021/12/04 08:41:58;;;;;;;6.47;5.97;;;7.70;99.90;;;;;;4913443;29;20426;-67
2021/12/04 08:44:25;;;;;;;6.10;5.60;;;7.90;99.90;;;;;;4899337;29;20519;-67
2021/12/04 08:46:51;;;;;;;6.60;6.07;;;7.70;99.90;;;;;;4881562;29;20436;-67
2021/12/04 08:49:17;;;;;;;6.57;6.00;;;7.70;99.90;;;;;;4899142;29;20427;-67
2021/12/04 08:51:43;;;;;;;6.17;5.67;;;7.70;99.90;;;;;;4897889;29;20427;-67
2021/12/04 08:54:10;;;;;;;6.40;5.90;;;7.80;99.90;;;;;;4912353;29;20423;-67
2021/12/04 08:56:36;;;;;;;7.00;6.40;;;7.90;99.90;;;;;;4897817;29;21479;-66
2021/12/04 08:59:04;;;;;;;6.63;6.10;;;8.00;99.90;;;;;;4897763;29;20510;-67
2021/12/04 09:01:36;;;;;;;5.90;5.40;;;8.10;99.90;;;;;;4897675;29;20565;-67
2021/12/04 09:04:23;;;;;;;5.10;4.70;;;8.20;99.90;;;;;;4905319;29;20458;-67
2021/12/04 09:06:52;;;;;;;5.90;5.40;;;7.90;99.90;;;;;;4916764;29;20414;-67
2021/12/04 09:09:18;;;;;;;5.90;5.40;;;8.00;99.90;;;;;;4887629;29;20487;-67
2021/12/04 09:11:48;;;;;;;5.70;5.30;;;8.10;99.90;;;;;;4894218;29;20483;-67
2021/12/04 09:14:16;;;;;;;5.40;5.00;;;8.00;99.90;;;;;;4880260;29;20818;-67
2021/12/04 09:16:42;;;;;;;5.60;5.20;;;7.90;99.90;;;;;;4894798;29;20767;-67
2021/12/04 09:19:08;;;;;;;5.70;5.30;;;8.00;99.90;;;;;;4899114;29;20427;-67
2021/12/04 09:21:35;;;;;;;6.17;5.67;;;8.10;99.90;;;;;;4898769;29;20958;-67
2021/12/04 09:24:14;;;;;;;5.10;4.80;;;8.10;99.90;;;;;;4897393;29;20966;-67
2021/12/04 10:12:58;;;;;;;5.50;5.13;;;8.40;99.90;;;;;;4897289;29;20951;-68
2021/12/04 10:15:31;;;;;;;5.40;5.00;;;8.70;99.90;;;;;;4894992;29;20210;-68
2021/12/04 10:34:53;;;;;;;5.43;5.03;;;11.70;96.90;;;;;;4897186;29;20905;-68
2021/12/04 10:37:25;;;;;;;6.10;5.60;;;11.90;98.30;;;;;;4897201;29;20788;-68
2021/12/04 10:39:52;;;;;;;6.40;5.90;;;12.00;96.70;;;;;;4896545;29;20422;-69
2021/12/04 10:42:24;;;;;;;6.37;5.77;;;12.10;96.50;;;;;;4897280;29;20438;-68
2021/12/04 10:44:55;;;;;;;5.90;5.50;;;12.20;95.60;;;;;;4897030;29;20403;-68
2021/12/04 10:47:24;;;;;;;7.13;6.53;;;12.30;94.40;;;;;;4897524;29;20414;-68
2021/12/04 10:55:18;;;;;;;6.50;6.00;;;12.20;95.60;;;;;;4901408;29;20502;-68
2021/12/04 11:00:46;;;;;;;6.53;6.00;;;12.30;93.30;;;;;;4901378;29;20423;-69
2021/12/04 11:25:43;;;;;;;6.63;6.13;;;12.30;92.80;;;;;;4900382;29;20498;-68
2021/12/04 11:46:46;;;;;;;4.70;4.40;;;13.50;87.80;;;;;;4898891;29;20413;-67
2021/12/04 11:49:16;;;;;;;5.17;4.77;;;12.70;88.60;;;;;;4898456;29;20498;-67
2021/12/04 11:51:47;;;;;;;5.10;4.80;;;12.40;92.10;;;;;;4899341;29;20467;-68
2021/12/04 11:54:13;;;;;;;4.93;4.53;;;12.60;92.10;;;;;;4899457;29;20450;-67
2021/12/04 11:56:39;;;;;;;5.27;4.93;;;12.70;90.80;;;;;;4899736;29;20908;-67
2021/12/04 11:59:05;;;;;;;4.60;4.30;;;12.70;91.80;;;;;;4898701;29;20939;-67
2021/12/04 12:01:34;;;;;;;5.20;4.80;;;13.00;91.20;;;;;;4915399;29;20434;-67
2021/12/04 12:04:07;;;;;;;4.30;4.00;;;13.10;90.30;;;;;;4902394;29;20517;-67
2021/12/04 12:06:41;;;;;;;4.83;4.53;;;12.70;91.00;;;;;;4913009;29;20437;-67
2021/12/04 12:09:18;;;;;;;4.70;4.30;;;12.60;90.40;;;;;;4899556;29;20552;-67
2021/12/04 12:11:56;;;;;;;4.23;4.03;;;12.40;90.30;;;;;;4899802;29;20471;-67
2021/12/04 12:14:35;;;;;;;5.43;5.03;;;12.10;90.80;;;;;;4900061;29;20426;-67
2021/12/04 12:17:02;;;;;;;4.67;4.27;;;11.80;91.50;;;;;;4899060;29;20437;-67
2021/12/04 12:19:35;;;;;;;11.33;9.63;;;11.50;92.10;;;;;;4899901;29;20430;-67
2021/12/04 12:22:22;;;;;;;117.17;72.87;;;11.00;92.80;;;;;;4911651;29;20419;-68
2021/12/04 12:38:07;;;;;;;5.03;4.73;;;10.40;95.20;;;;;;4898711;29;20433;-67
2021/12/04 12:40:34;;;;;;;5.37;5.00;;;10.10;95.50;;;;;;4899122;29;20460;-67
2021/12/04 12:43:09;;;;;;;5.10;4.70;;;10.00;96.10;;;;;;4898649;29;20230;-67
2021/12/04 12:45:35;;;;;;;5.20;4.90;;;9.90;96.90;;;;;;4898888;29;20424;-67
2021/12/04 12:48:05;;;;;;;5.50;5.10;;;9.80;97.40;;;;;;4898462;29;20921;-67
2021/12/04 12:50:40;;;;;;;5.43;5.00;;;9.70;97.40;;;;;;4899018;29;20833;-67
2021/12/04 12:53:09;;;;;;;5.03;4.67;;;9.60;98.10;;;;;;4897876;29;20447;-67
2021/12/04 12:55:36;;;;;;;5.00;4.60;;;9.60;98.50;;;;;;4898816;29;20448;-68
2021/12/04 12:58:31;;;;;;;5.10;4.77;;;9.60;98.50;;;;;;4897987;29;20409;-68
2021/12/04 13:12:48;;;;;;;5.60;5.27;;;9.50;99.40;;;;;;4898543;29;20896;-68
2021/12/04 13:15:31;;;;;;;5.30;4.90;;;9.40;99.30;;;;;;4898030;29;20813;-68
2021/12/04 13:18:09;;;;;;;4.80;4.50;;;9.50;99.50;;;;;;4898526;29;20754;-68
2021/12/04 13:20:35;;;;;;;5.00;4.70;;;9.30;99.80;;;;;;4898703;29;20428;-68
2021/12/04 13:23:09;;;;;;;4.90;4.60;;;9.20;99.90;;;;;;4881349;29;20554;-67
2021/12/04 13:25:35;;;;;;;5.40;5.00;;;9.10;99.90;;;;;;4898539;29;20628;-68
2021/12/04 13:30:26;;;;;;;5.30;5.00;;;9.00;99.90;;;;;;4898708;29;20654;-67
2021/12/04 13:32:52;;;;;;;5.03;4.73;;;8.90;99.90;;;;;;4898224;29;20210;-68
2021/12/04 13:35:22;;;;;;;4.40;4.10;;;9.00;99.90;;;;;;4898431;29;20201;-68
2021/12/04 13:37:50;;;;;;;4.27;3.97;;;9.00;99.90;;;;;;4898240;29;20483;-67
2021/12/04 13:40:19;;;;;;;4.37;4.07;;;8.90;99.90;;;;;;4897523;29;20426;-67
2021/12/04 13:42:46;;;;;;;4.17;3.93;;;8.90;99.90;;;;;;4897927;29;20467;-67
2021/12/04 13:45:16;;;;;;;3.83;3.63;;;9.00;99.90;;;;;;4897470;29;20416;-68
2021/12/04 13:47:43;;;;;;;3.93;3.63;;;9.00;99.90;;;;;;4898332;29;20391;-67
2021/12/04 13:52:56;;;;;;;3.90;3.70;;;8.90;99.90;;;;;;4897685;29;20411;-68
2021/12/04 13:55:23;;;;;;;4.37;4.07;;;8.80;99.90;;;;;;4898231;29;20426;-68
2021/12/04 13:57:50;;;;;;;4.67;4.37;;;8.90;99.90;;;;;;4898006;29;20431;-68
2021/12/04 14:00:18;;;;;;;4.60;4.30;;;9.00;99.90;;;;;;4897179;29;20407;-68
2021/12/04 14:02:44;;;;;;;4.40;4.13;;;8.90;99.90;;;;;;4897427;29;20479;-67
2021/12/04 14:05:13;;;;;;;3.80;3.60;;;8.90;99.90;;;;;;4896989;29;20483;-68
2021/12/04 14:07:49;;;;;;;4.50;4.20;;;9.00;99.90;;;;;;4897935;29;20178;-67
2021/12/04 14:10:21;;;;;;;4.70;4.40;;;9.00;99.90;;;;;;4896953;29;20474;-68
2021/12/04 14:12:47;;;;;;;5.07;4.67;;;8.90;99.90;;;;;;4897607;29;20428;-67
2021/12/04 14:15:17;;;;;;;4.73;4.43;;;8.80;99.90;;;;;;4896726;29;20765;-67
2021/12/04 14:17:43;;;;;;;4.90;4.50;;;8.70;99.90;;;;;;4897768;29;20761;-67
2021/12/04 14:20:13;;;;;;;5.27;4.87;;;8.70;99.90;;;;;;4880525;29;20427;-67
2021/12/04 14:22:47;;;;;;;5.60;5.20;;;8.70;99.90;;;;;;4897725;29;20440;-67
2021/12/04 14:25:13;;;;;;;5.53;5.10;;;8.60;99.90;;;;;;4896251;29;20447;-68
2021/12/04 14:27:44;;;;;;;5.30;5.00;;;8.60;99.90;;;;;;4897553;29;20423;-67
2021/12/04 14:30:23;;;;;;;5.77;5.37;;;8.60;99.90;;;;;;4897189;29;20423;-67
2021/12/04 14:32:53;;;;;;;6.43;5.93;;;8.60;99.90;;;;;;4897816;29;20463;-68
2021/12/04 14:35:21;;;;;;;5.40;5.00;;;8.50;99.90;;;;;;4897027;29;20471;-68
2021/12/04 14:37:50;;;;;;;5.80;5.30;;;8.60;99.90;;;;;;4897618;29;20423;-67
2021/12/04 14:40:27;;;;;;;6.10;5.70;;;8.70;99.90;;;;;;4897006;29;20428;-67
2021/12/04 14:42:54;;;;;;;6.20;5.70;;;8.80;99.90;;;;;;4897535;29;20941;-68
2021/12/04 14:45:23;;;;;;;5.50;5.10;;;8.80;99.90;;;;;;4896881;29;20424;-67
2021/12/04 14:48:00;;;;;;;5.90;5.40;;;8.90;99.90;;;;;;4897563;29;20423;-67
2021/12/04 14:50:27;;;;;;;5.90;5.50;;;8.90;99.90;;;;;;4897550;29;20462;-68
2021/12/04 14:52:56;;;;;;;5.33;4.93;;;8.80;99.90;;;;;;4897792;29;20517;-67
2021/12/04 14:55:26;;;;;;;6.20;5.63;;;8.70;99.90;;;;;;4897752;29;20415;-67
2021/12/04 14:57:53;;;;;;;6.07;5.67;;;8.70;99.90;;;;;;4897429;29;20426;-69
2021/12/04 15:00:23;;;;;;;6.10;5.60;;;8.60;99.90;;;;;;4896742;29;20419;-69
2021/12/04 15:02:54;;;;;;;6.50;5.97;;;8.50;99.90;;;;;;4896837;29;20479;-69
2021/12/04 15:05:29;;;;;;;6.37;5.77;;;8.50;99.90;;;;;;4896275;29;20523;-68
2021/12/04 15:08:11;;;;;;;6.80;6.10;;;8.50;99.90;;;;;;4897291;29;20419;-69
2021/12/04 15:10:39;;;;;;;6.80;6.20;;;8.60;99.90;;;;;;4897173;29;20399;-69
2021/12/04 15:13:07;;;;;;;7.27;6.67;;;8.50;99.90;;;;;;4896765;29;20442;-69
2021/12/04 15:15:36;;;;;;;8.73;7.83;;;8.60;99.90;;;;;;4897365;29;20445;-69
2021/12/04 15:18:10;;;;;;;7.70;6.90;;;8.70;99.90;;;;;;4896706;29;20419;-69
2021/12/04 15:20:41;;;;;;;7.97;7.27;;;8.90;99.90;;;;;;4897054;29;20495;-68
2021/12/04 15:23:13;;;;;;;8.17;7.43;;;8.80;99.90;;;;;;4896983;29;20837;-69
2021/12/04 15:25:41;;;;;;;9.43;8.43;;;8.80;99.90;;;;;;4897270;29;20407;-68
2021/12/04 15:28:28;;;;;;;11.47;10.27;;;8.90;99.90;;;;;;4895362;29;20761;-67
2021/12/04 15:30:58;;;;;;;9.47;8.60;;;8.90;99.90;;;;;;4897188;29;20408;-68
2021/12/04 15:33:34;;;;;;;9.00;8.10;;;9.00;99.90;;;;;;4896456;29;20447;-67
2021/12/04 15:36:00;;;;;;;9.23;8.33;;;9.10;99.90;;;;;;4896673;29;20409;-68
2021/12/04 15:38:42;;;;;;;11.00;9.30;;;9.10;99.90;;;;;;4898405;29;20432;-68
2021/12/04 15:55:06;;;;;;;4.80;4.50;;;9.10;99.90;;;;;;4885761;29;20419;-67
2021/12/04 15:57:34;;;;;;;4.87;4.47;;;9.00;99.90;;;;;;4899370;29;20411;-67
2021/12/04 16:00:07;;;;;;;4.10;3.80;;;9.00;99.90;;;;;;4899597;29;20416;-68
2021/12/04 16:02:39;;;;;;;4.83;4.43;;;8.90;99.90;;;;;;4899827;29;20822;-67
2021/12/04 16:05:18;;;;;;;6.00;5.43;;;8.90;99.90;;;;;;4899061;29;20424;-67
2021/12/04 16:07:44;;;;;;;4.97;4.60;;;8.80;99.90;;;;;;4882823;29;20426;-67
2021/12/04 16:10:15;;;;;;;4.80;4.40;;;8.80;99.90;;;;;;4897780;29;20432;-67
2021/12/04 16:12:43;;;;;;;5.00;4.60;;;8.80;99.90;;;;;;4895885;29;20758;-67
2021/12/04 16:15:10;;;;;;;5.00;4.60;;;8.90;99.90;;;;;;4881249;29;20888;-67
2021/12/04 16:17:36;;;;;;;6.00;5.40;;;8.80;99.90;;;;;;4865615;29;20432;-67
2021/12/04 16:20:16;;;;;;;5.30;4.80;;;8.80;99.90;;;;;;4898104;29;20427;-68
2021/12/04 16:22:49;;;;;;;4.40;4.10;;;8.80;99.90;;;;;;4882193;29;20423;-67
2021/12/04 16:25:22;;;;;;;4.10;3.80;;;8.90;99.90;;;;;;4898701;29;20466;-67
2021/12/04 16:27:59;;;;;;;3.10;3.00;;;8.80;99.90;;;;;;4899830;29;20400;-67
2021/12/04 16:30:33;;;;;;;2.80;2.70;;;8.70;99.90;;;;;;4882209;29;20423;-67
2021/12/04 16:33:09;;;;;;;3.37;3.17;;;8.70;99.90;;;;;;4899980;29;20430;-67
2021/12/04 16:35:55;;;;;;;2.77;2.67;;;8.70;99.90;;;;;;4899407;29;20971;-67
2021/12/04 16:38:22;;;;;;;2.87;2.77;;;8.60;99.90;;;;;;4899118;29;20884;-67
2021/12/04 16:40:51;;;;;;;6.20;5.80;;;8.60;99.90;;;;;;4899332;29;20412;-67
2021/12/04 16:43:34;;;;;;;3.47;3.27;;;8.60;99.90;;;;;;4897463;29;20542;-67
2021/12/04 16:46:07;;;;;;;4.80;4.40;;;8.50;99.90;;;;;;4881563;29;20431;-67